Terminal Aerodrome Forecast
Issued by NWS

Home | Current Version | Previous Version | Text Only | Print | Product List | Glossary On
Versions: 1 2 3 4 5 6 7 8 9 10 11 12 13 14
000
FTUS43 KPAH 261700
TAFCGI
TAF
KCGI 261725Z 2618/2718 22012G19KT P6SM FEW025 SCT250
     FM270000 21008KT P6SM SCT150
     FM271400 27011G19KT P6SM SCT035 BKN180=

USA.gov is the U.S. government's official web portal to all federal, state and local government web resources and services.